Moselle, Missouri
Current Conditions -  °F | °C
As of 8:55 AM on Saturday 27 Dec 2014 (Local Time) from KFYG Reporting Station
Light Rain Light Rain  
Wind Chill:   Ceiling: 1500
Heat Index:   Visibility: 8mi
Dew Point:   Wind: 14mph
Humidity: 81%   Direction: 300°WNW
Pressure: 30.18"   Gusts: 24mph
Location:  38.4268°N, 91.0473°W
Report Text: KFYG 271455Z AUTO 30012G21KT 8SM -RA BKN015 OVC033 06/03 A3018 RMK AO2
Loading
Personal Weather Stations






























Interactive Weather Map New forecast layout! Learn more

10-Day Weather Forecast

Advertisements
Track Severe Weather on mobile